sensor_id;sensor_type;location;lat;lon;timestamp;P1;durP1;ratioP1;P2;durP2;ratioP2
71343;SDS011;59146;43.850;25.948;2023-02-28T00:01:11;18.40;;;13.07;;
71343;SDS011;59146;43.850;25.948;2023-02-28T00:03:38;19.88;;;13.05;;
71343;SDS011;59146;43.850;25.948;2023-02-28T00:06:04;19.02;;;13.85;;
71343;SDS011;59146;43.850;25.948;2023-02-28T00:08:31;20.58;;;11.93;;
71343;SDS011;59146;43.850;25.948;2023-02-28T00:11:00;16.70;;;12.80;;
71343;SDS011;59146;43.850;25.948;2023-02-28T00:13:29;20.00;;;12.23;;
71343;SDS011;59146;43.850;25.948;2023-02-28T00:16:01;17.45;;;12.45;;
71343;SDS011;59146;43.850;25.948;2023-02-28T00:18:28;17.10;;;12.05;;
71343;SDS011;59146;43.850;25.948;2023-02-28T00:20:54;20.13;;;12.80;;
71343;SDS011;59146;43.850;25.948;2023-02-28T00:23:19;18.60;;;12.25;;
71343;SDS011;59146;43.850;25.948;2023-02-28T00:25:44;16.90;;;13.10;;
71343;SDS011;59146;43.850;25.948;2023-02-28T00:28:10;16.27;;;12.82;;
71343;SDS011;59146;43.850;25.948;2023-02-28T00:30:35;18.00;;;12.65;;
71343;SDS011;59146;43.850;25.948;2023-02-28T00:33:01;16.48;;;12.23;;
71343;SDS011;59146;43.850;25.948;2023-02-28T00:35:26;13.60;;;10.40;;
71343;SDS011;59146;43.850;25.948;2023-02-28T00:37:51;18.65;;;13.35;;
71343;SDS011;59146;43.850;25.948;2023-02-28T00:40:17;16.83;;;12.73;;
71343;SDS011;59146;43.850;25.948;2023-02-28T00:42:42;17.48;;;13.02;;
71343;SDS011;59146;43.850;25.948;2023-02-28T00:45:08;15.55;;;11.60;;
71343;SDS011;59146;43.850;25.948;2023-02-28T00:47:33;17.58;;;12.82;;
71343;SDS011;59146;43.850;25.948;2023-02-28T00:49:59;17.25;;;12.52;;
71343;SDS011;59146;43.850;25.948;2023-02-28T00:52:25;16.10;;;11.57;;
71343;SDS011;59146;43.850;25.948;2023-02-28T00:54:50;15.10;;;11.05;;
71343;SDS011;59146;43.850;25.948;2023-02-28T00:57:16;15.95;;;11.48;;
71343;SDS011;59146;43.850;25.948;2023-02-28T00:59:41;18.23;;;11.60;;
71343;SDS011;59146;43.850;25.948;2023-02-28T01:02:07;15.85;;;12.23;;
71343;SDS011;59146;43.850;25.948;2023-02-28T01:04:32;17.02;;;12.35;;
71343;SDS011;59146;43.850;25.948;2023-02-28T01:06:57;15.93;;;12.93;;
71343;SDS011;59146;43.850;25.948;2023-02-28T01:09:23;18.60;;;12.63;;
71343;SDS011;59146;43.850;25.948;2023-02-28T01:11:48;17.05;;;12.50;;
71343;SDS011;59146;43.850;25.948;2023-02-28T01:14:14;22.20;;;12.90;;
71343;SDS011;59146;43.850;25.948;2023-02-28T01:16:42;16.63;;;12.10;;
71343;SDS011;59146;43.850;25.948;2023-02-28T01:19:08;18.48;;;12.20;;
71343;SDS011;59146;43.850;25.948;2023-02-28T01:21:34;18.65;;;12.55;;
71343;SDS011;59146;43.850;25.948;2023-02-28T01:24:00;16.42;;;11.27;;
71343;SDS011;59146;43.850;25.948;2023-02-28T01:26:25;22.58;;;13.23;;
71343;SDS011;59146;43.850;25.948;2023-02-28T01:28:51;17.90;;;12.48;;
71343;SDS011;59146;43.850;25.948;2023-02-28T01:31:18;16.02;;;10.77;;
71343;SDS011;59146;43.850;25.948;2023-02-28T01:33:44;21.23;;;13.38;;
71343;SDS011;59146;43.850;25.948;2023-02-28T01:36:11;16.85;;;12.40;;
71343;SDS011;59146;43.850;25.948;2023-02-28T01:38:37;20.50;;;12.30;;
71343;SDS011;59146;43.850;25.948;2023-02-28T01:41:03;18.23;;;12.43;;
71343;SDS011;59146;43.850;25.948;2023-02-28T01:43:30;16.63;;;12.13;;
71343;SDS011;59146;43.850;25.948;2023-02-28T01:46:16;20.98;;;12.15;;
71343;SDS011;59146;43.850;25.948;2023-02-28T01:48:42;20.75;;;12.48;;
71343;SDS011;59146;43.850;25.948;2023-02-28T01:51:20;16.73;;;11.45;;
71343;SDS011;59146;43.850;25.948;2023-02-28T01:53:53;18.10;;;11.88;;
71343;SDS011;59146;43.850;25.948;2023-02-28T01:56:24;14.10;;;11.20;;
71343;SDS011;59146;43.850;25.948;2023-02-28T01:58:53;15.43;;;11.57;;
71343;SDS011;59146;43.850;25.948;2023-02-28T02:01:23;16.33;;;11.48;;
71343;SDS011;59146;43.850;25.948;2023-02-28T02:03:51;14.57;;;11.18;;
71343;SDS011;59146;43.850;25.948;2023-02-28T02:06:24;17.45;;;11.52;;
71343;SDS011;59146;43.850;25.948;2023-02-28T02:08:53;14.77;;;10.63;;
71343;SDS011;59146;43.850;25.948;2023-02-28T02:11:20;14.48;;;10.88;;
71343;SDS011;59146;43.850;25.948;2023-02-28T02:16:35;18.08;;;11.60;;
71343;SDS011;59146;43.850;25.948;2023-02-28T02:22:20;19.38;;;12.95;;
71343;SDS011;59146;43.850;25.948;2023-02-28T02:41:33;14.18;;;11.23;;
71343;SDS011;59146;43.850;25.948;2023-02-28T02:44:04;17.70;;;11.32;;
71343;SDS011;59146;43.850;25.948;2023-02-28T02:46:47;19.60;;;10.98;;
71343;SDS011;59146;43.850;25.948;2023-02-28T02:49:26;16.52;;;11.82;;
71343;SDS011;59146;43.850;25.948;2023-02-28T02:51:56;21.67;;;11.90;;
71343;SDS011;59146;43.850;25.948;2023-02-28T02:54:28;19.88;;;12.93;;
71343;SDS011;59146;43.850;25.948;2023-02-28T02:57:01;18.55;;;12.02;;
71343;SDS011;59146;43.850;25.948;2023-02-28T02:59:30;20.98;;;12.20;;
71343;SDS011;59146;43.850;25.948;2023-02-28T03:02:00;21.42;;;13.02;;
71343;SDS011;59146;43.850;25.948;2023-02-28T03:04:30;18.92;;;13.95;;
71343;SDS011;59146;43.850;25.948;2023-02-28T03:06:59;21.35;;;14.50;;
71343;SDS011;59146;43.850;25.948;2023-02-28T03:09:25;21.23;;;14.68;;
71343;SDS011;59146;43.850;25.948;2023-02-28T03:11:52;24.98;;;15.98;;
71343;SDS011;59146;43.850;25.948;2023-02-28T03:22:12;25.17;;;14.88;;
71343;SDS011;59146;43.850;25.948;2023-02-28T03:30:51;24.80;;;15.70;;
71343;SDS011;59146;43.850;25.948;2023-02-28T03:33:45;28.80;;;16.58;;
71343;SDS011;59146;43.850;25.948;2023-02-28T03:36:30;25.52;;;16.35;;
71343;SDS011;59146;43.850;25.948;2023-02-28T03:39:09;28.83;;;17.55;;
71343;SDS011;59146;43.850;25.948;2023-02-28T03:41:42;27.93;;;17.17;;
71343;SDS011;59146;43.850;25.948;2023-02-28T03:44:17;31.35;;;17.42;;
71343;SDS011;59146;43.850;25.948;2023-02-28T03:47:06;28.02;;;17.52;;
71343;SDS011;59146;43.850;25.948;2023-02-28T03:49:40;28.77;;;17.40;;
71343;SDS011;59146;43.850;25.948;2023-02-28T03:52:12;27.30;;;17.85;;
71343;SDS011;59146;43.850;25.948;2023-02-28T03:54:44;30.73;;;18.63;;
71343;SDS011;59146;43.850;25.948;2023-02-28T04:00:11;30.35;;;19.42;;
71343;SDS011;59146;43.850;25.948;2023-02-28T04:02:58;27.83;;;19.08;;
71343;SDS011;59146;43.850;25.948;2023-02-28T04:05:24;31.17;;;19.27;;
71343;SDS011;59146;43.850;25.948;2023-02-28T04:07:51;26.65;;;18.17;;
71343;SDS011;59146;43.850;25.948;2023-02-28T04:10:17;28.15;;;19.92;;
71343;SDS011;59146;43.850;25.948;2023-02-28T04:12:43;29.00;;;18.58;;
71343;SDS011;59146;43.850;25.948;2023-02-28T04:15:09;26.92;;;18.88;;
71343;SDS011;59146;43.850;25.948;2023-02-28T04:17:36;32.40;;;19.05;;
71343;SDS011;59146;43.850;25.948;2023-02-28T04:20:01;29.63;;;18.73;;
71343;SDS011;59146;43.850;25.948;2023-02-28T04:22:28;36.83;;;21.25;;
71343;SDS011;59146;43.850;25.948;2023-02-28T04:24:53;29.33;;;19.50;;
71343;SDS011;59146;43.850;25.948;2023-02-28T04:27:19;29.45;;;18.77;;
71343;SDS011;59146;43.850;25.948;2023-02-28T04:29:45;30.10;;;18.30;;
71343;SDS011;59146;43.850;25.948;2023-02-28T04:32:11;26.90;;;16.50;;
71343;SDS011;59146;43.850;25.948;2023-02-28T04:34:36;27.98;;;19.08;;
71343;SDS011;59146;43.850;25.948;2023-02-28T04:37:02;33.25;;;19.98;;
71343;SDS011;59146;43.850;25.948;2023-02-28T04:39:28;40.13;;;21.17;;
71343;SDS011;59146;43.850;25.948;2023-02-28T04:41:54;35.25;;;19.70;;
71343;SDS011;59146;43.850;25.948;2023-02-28T04:44:21;35.60;;;21.52;;
71343;SDS011;59146;43.850;25.948;2023-02-28T04:46:47;36.08;;;20.88;;
71343;SDS011;59146;43.850;25.948;2023-02-28T04:49:14;33.47;;;21.38;;
71343;SDS011;59146;43.850;25.948;2023-02-28T04:51:40;35.00;;;22.50;;
71343;SDS011;59146;43.850;25.948;2023-02-28T04:54:06;32.72;;;20.30;;
71343;SDS011;59146;43.850;25.948;2023-02-28T04:56:31;36.28;;;21.90;;
71343;SDS011;59146;43.850;25.948;2023-02-28T04:58:57;34.55;;;21.42;;
71343;SDS011;59146;43.850;25.948;2023-02-28T05:03:56;35.60;;;21.90;;
71343;SDS011;59146;43.850;25.948;2023-02-28T05:06:23;36.55;;;22.58;;
71343;SDS011;59146;43.850;25.948;2023-02-28T05:08:51;33.50;;;20.52;;
71343;SDS011;59146;43.850;25.948;2023-02-28T05:11:18;39.42;;;22.85;;
71343;SDS011;59146;43.850;25.948;2023-02-28T05:13:46;36.33;;;21.42;;
71343;SDS011;59146;43.850;25.948;2023-02-28T05:16:12;39.53;;;23.95;;
71343;SDS011;59146;43.850;25.948;2023-02-28T05:18:38;39.70;;;23.75;;
71343;SDS011;59146;43.850;25.948;2023-02-28T05:21:04;36.13;;;22.13;;
71343;SDS011;59146;43.850;25.948;2023-02-28T05:23:30;36.20;;;21.63;;
71343;SDS011;59146;43.850;25.948;2023-02-28T05:25:55;39.95;;;25.98;;
71343;SDS011;59146;43.850;25.948;2023-02-28T05:28:21;41.03;;;23.08;;
71343;SDS011;59146;43.850;25.948;2023-02-28T05:30:47;40.90;;;23.85;;
71343;SDS011;59146;43.850;25.948;2023-02-28T05:33:12;42.80;;;24.50;;
71343;SDS011;59146;43.850;25.948;2023-02-28T05:35:39;40.92;;;24.60;;
71343;SDS011;59146;43.850;25.948;2023-02-28T05:38:05;41.05;;;24.02;;
71343;SDS011;59146;43.850;25.948;2023-02-28T05:40:30;41.25;;;24.25;;
71343;SDS011;59146;43.850;25.948;2023-02-28T05:42:56;36.20;;;19.38;;
71343;SDS011;59146;43.850;25.948;2023-02-28T05:45:21;44.15;;;22.67;;
71343;SDS011;59146;43.850;25.948;2023-02-28T05:47:46;44.25;;;25.45;;
71343;SDS011;59146;43.850;25.948;2023-02-28T05:50:12;42.30;;;24.42;;
71343;SDS011;59146;43.850;25.948;2023-02-28T05:52:37;42.80;;;25.65;;
71343;SDS011;59146;43.850;25.948;2023-02-28T05:55:03;38.70;;;24.15;;
71343;SDS011;59146;43.850;25.948;2023-02-28T05:57:29;41.10;;;24.95;;
71343;SDS011;59146;43.850;25.948;2023-02-28T05:59:55;46.15;;;24.30;;
71343;SDS011;59146;43.850;25.948;2023-02-28T06:02:20;41.08;;;23.67;;
71343;SDS011;59146;43.850;25.948;2023-02-28T06:04:45;38.45;;;20.88;;
71343;SDS011;59146;43.850;25.948;2023-02-28T06:07:11;40.25;;;23.27;;
71343;SDS011;59146;43.850;25.948;2023-02-28T06:09:37;34.60;;;20.60;;
71343;SDS011;59146;43.850;25.948;2023-02-28T06:12:03;40.30;;;22.45;;
71343;SDS011;59146;43.850;25.948;2023-02-28T06:14:30;36.40;;;20.48;;
71343;SDS011;59146;43.850;25.948;2023-02-28T06:16:58;37.33;;;21.83;;
71343;SDS011;59146;43.850;25.948;2023-02-28T06:19:24;34.88;;;20.73;;
71343;SDS011;59146;43.850;25.948;2023-02-28T06:21:53;39.03;;;21.67;;
71343;SDS011;59146;43.850;25.948;2023-02-28T06:24:20;34.78;;;20.75;;
71343;SDS011;59146;43.850;25.948;2023-02-28T06:26:46;34.28;;;19.77;;
71343;SDS011;59146;43.850;25.948;2023-02-28T06:29:11;34.42;;;20.05;;
71343;SDS011;59146;43.850;25.948;2023-02-28T06:31:36;33.80;;;19.73;;
71343;SDS011;59146;43.850;25.948;2023-02-28T06:34:03;36.22;;;21.48;;
71343;SDS011;59146;43.850;25.948;2023-02-28T06:36:29;34.53;;;19.83;;
71343;SDS011;59146;43.850;25.948;2023-02-28T06:38:55;35.85;;;22.05;;
71343;SDS011;59146;43.850;25.948;2023-02-28T06:41:25;32.03;;;19.10;;
71343;SDS011;59146;43.850;25.948;2023-02-28T06:43:51;35.47;;;22.02;;
71343;SDS011;59146;43.850;25.948;2023-02-28T06:46:17;37.25;;;23.40;;
71343;SDS011;59146;43.850;25.948;2023-02-28T06:48:44;40.95;;;20.90;;
71343;SDS011;59146;43.850;25.948;2023-02-28T06:51:14;37.45;;;21.15;;
71343;SDS011;59146;43.850;25.948;2023-02-28T06:53:42;39.13;;;24.67;;
71343;SDS011;59146;43.850;25.948;2023-02-28T06:56:09;43.17;;;24.38;;
71343;SDS011;59146;43.850;25.948;2023-02-28T06:58:36;45.47;;;26.20;;
71343;SDS011;59146;43.850;25.948;2023-02-28T07:01:02;39.80;;;24.33;;
71343;SDS011;59146;43.850;25.948;2023-02-28T07:03:28;45.58;;;26.27;;
71343;SDS011;59146;43.850;25.948;2023-02-28T07:05:53;44.25;;;25.27;;
71343;SDS011;59146;43.850;25.948;2023-02-28T07:08:21;39.47;;;23.92;;
71343;SDS011;59146;43.850;25.948;2023-02-28T07:10:47;37.03;;;21.77;;
71343;SDS011;59146;43.850;25.948;2023-02-28T07:13:16;40.50;;;24.52;;
71343;SDS011;59146;43.850;25.948;2023-02-28T07:15:42;36.35;;;19.40;;
71343;SDS011;59146;43.850;25.948;2023-02-28T07:18:07;31.35;;;19.40;;
71343;SDS011;59146;43.850;25.948;2023-02-28T07:20:33;36.70;;;21.55;;
71343;SDS011;59146;43.850;25.948;2023-02-28T07:22:58;45.40;;;24.75;;
71343;SDS011;59146;43.850;25.948;2023-02-28T07:25:24;37.53;;;23.35;;
71343;SDS011;59146;43.850;25.948;2023-02-28T07:27:52;37.78;;;22.80;;
71343;SDS011;59146;43.850;25.948;2023-02-28T07:30:19;35.33;;;19.85;;
71343;SDS011;59146;43.850;25.948;2023-02-28T07:32:44;39.72;;;22.45;;
71343;SDS011;59146;43.850;25.948;2023-02-28T07:35:10;36.58;;;21.88;;
71343;SDS011;59146;43.850;25.948;2023-02-28T07:37:36;35.08;;;22.38;;
71343;SDS011;59146;43.850;25.948;2023-02-28T07:40:05;35.22;;;21.15;;
71343;SDS011;59146;43.850;25.948;2023-02-28T07:42:36;37.83;;;20.00;;
71343;SDS011;59146;43.850;25.948;2023-02-28T07:45:02;33.67;;;18.73;;
71343;SDS011;59146;43.850;25.948;2023-02-28T07:47:29;38.80;;;22.65;;
71343;SDS011;59146;43.850;25.948;2023-02-28T07:49:55;34.72;;;21.10;;
71343;SDS011;59146;43.850;25.948;2023-02-28T07:52:21;42.17;;;24.35;;
71343;SDS011;59146;43.850;25.948;2023-02-28T07:54:48;41.42;;;23.65;;
71343;SDS011;59146;43.850;25.948;2023-02-28T07:57:14;55.90;;;21.92;;
71343;SDS011;59146;43.850;25.948;2023-02-28T07:59:39;38.33;;;21.85;;
71343;SDS011;59146;43.850;25.948;2023-02-28T08:02:05;45.65;;;27.30;;
71343;SDS011;59146;43.850;25.948;2023-02-28T08:04:33;41.78;;;24.60;;
71343;SDS011;59146;43.850;25.948;2023-02-28T08:06:59;41.42;;;22.73;;
71343;SDS011;59146;43.850;25.948;2023-02-28T08:09:24;37.17;;;23.00;;
71343;SDS011;59146;43.850;25.948;2023-02-28T08:11:49;40.70;;;23.10;;
71343;SDS011;59146;43.850;25.948;2023-02-28T08:14:15;38.55;;;23.38;;
71343;SDS011;59146;43.850;25.948;2023-02-28T08:16:40;39.47;;;22.52;;
71343;SDS011;59146;43.850;25.948;2023-02-28T08:19:07;40.50;;;19.73;;
71343;SDS011;59146;43.850;25.948;2023-02-28T08:21:33;30.50;;;19.02;;
71343;SDS011;59146;43.850;25.948;2023-02-28T08:23:58;40.45;;;21.98;;
71343;SDS011;59146;43.850;25.948;2023-02-28T08:26:24;38.30;;;21.75;;
71343;SDS011;59146;43.850;25.948;2023-02-28T08:28:49;44.50;;;24.60;;
71343;SDS011;59146;43.850;25.948;2023-02-28T08:31:15;41.47;;;23.05;;
71343;SDS011;59146;43.850;25.948;2023-02-28T08:33:42;39.97;;;23.02;;
71343;SDS011;59146;43.850;25.948;2023-02-28T08:36:09;37.65;;;22.33;;
71343;SDS011;59146;43.850;25.948;2023-02-28T08:38:35;37.30;;;22.45;;
71343;SDS011;59146;43.850;25.948;2023-02-28T08:41:03;31.70;;;18.55;;
71343;SDS011;59146;43.850;25.948;2023-02-28T08:43:33;38.25;;;22.58;;
71343;SDS011;59146;43.850;25.948;2023-02-28T08:45:59;44.22;;;25.05;;
71343;SDS011;59146;43.850;25.948;2023-02-28T08:48:26;40.20;;;22.55;;
71343;SDS011;59146;43.850;25.948;2023-02-28T08:53:26;35.38;;;21.25;;
71343;SDS011;59146;43.850;25.948;2023-02-28T08:55:58;42.85;;;24.23;;
71343;SDS011;59146;43.850;25.948;2023-02-28T08:58:26;38.05;;;22.67;;
71343;SDS011;59146;43.850;25.948;2023-02-28T09:00:51;38.55;;;23.58;;
71343;SDS011;59146;43.850;25.948;2023-02-28T09:03:17;41.40;;;23.23;;
71343;SDS011;59146;43.850;25.948;2023-02-28T09:05:56;36.78;;;20.42;;
71343;SDS011;59146;43.850;25.948;2023-02-28T09:08:23;35.90;;;22.80;;
71343;SDS011;59146;43.850;25.948;2023-02-28T09:10:49;39.20;;;24.02;;
71343;SDS011;59146;43.850;25.948;2023-02-28T09:13:15;35.28;;;20.83;;
71343;SDS011;59146;43.850;25.948;2023-02-28T09:15:40;34.47;;;20.38;;
71343;SDS011;59146;43.850;25.948;2023-02-28T09:18:06;35.50;;;21.92;;
71343;SDS011;59146;43.850;25.948;2023-02-28T09:20:31;34.15;;;21.52;;
71343;SDS011;59146;43.850;25.948;2023-02-28T09:22:56;37.90;;;22.92;;
71343;SDS011;59146;43.850;25.948;2023-02-28T09:25:22;34.13;;;21.83;;
71343;SDS011;59146;43.850;25.948;2023-02-28T09:27:47;34.75;;;22.40;;
71343;SDS011;59146;43.850;25.948;2023-02-28T09:30:13;38.85;;;23.58;;
71343;SDS011;59146;43.850;25.948;2023-02-28T09:32:38;31.42;;;20.00;;
71343;SDS011;59146;43.850;25.948;2023-02-28T09:35:04;35.22;;;22.00;;
71343;SDS011;59146;43.850;25.948;2023-02-28T09:37:30;34.05;;;21.42;;
71343;SDS011;59146;43.850;25.948;2023-02-28T09:39:56;31.70;;;20.13;;
71343;SDS011;59146;43.850;25.948;2023-02-28T09:42:23;33.95;;;19.63;;
71343;SDS011;59146;43.850;25.948;2023-02-28T09:44:58;39.13;;;20.85;;
71343;SDS011;59146;43.850;25.948;2023-02-28T09:47:29;34.33;;;20.80;;
71343;SDS011;59146;43.850;25.948;2023-02-28T09:50:44;38.85;;;21.58;;
71343;SDS011;59146;43.850;25.948;2023-02-28T09:56:09;34.75;;;19.50;;
71343;SDS011;59146;43.850;25.948;2023-02-28T09:58:51;38.50;;;22.00;;
71343;SDS011;59146;43.850;25.948;2023-02-28T10:01:37;35.47;;;22.33;;
71343;SDS011;59146;43.850;25.948;2023-02-28T10:07:02;36.42;;;21.98;;
71343;SDS011;59146;43.850;25.948;2023-02-28T10:09:42;36.57;;;20.90;;
71343;SDS011;59146;43.850;25.948;2023-02-28T10:12:11;37.45;;;22.90;;
71343;SDS011;59146;43.850;25.948;2023-02-28T10:14:39;35.75;;;22.05;;
71343;SDS011;59146;43.850;25.948;2023-02-28T10:17:14;28.67;;;18.98;;
71343;SDS011;59146;43.850;25.948;2023-02-28T10:25:24;41.33;;;24.58;;
71343;SDS011;59146;43.850;25.948;2023-02-28T10:28:01;33.65;;;20.92;;
71343;SDS011;59146;43.850;25.948;2023-02-28T10:30:36;37.63;;;22.10;;
71343;SDS011;59146;43.850;25.948;2023-02-28T10:33:04;39.33;;;22.35;;
71343;SDS011;59146;43.850;25.948;2023-02-28T10:35:29;31.15;;;19.85;;
71343;SDS011;59146;43.850;25.948;2023-02-28T10:37:58;35.70;;;21.95;;
71343;SDS011;59146;43.850;25.948;2023-02-28T10:40:28;60.75;;;37.80;;
71343;SDS011;59146;43.850;25.948;2023-02-28T10:43:04;34.63;;;23.05;;
71343;SDS011;59146;43.850;25.948;2023-02-28T10:45:32;34.40;;;20.90;;
71343;SDS011;59146;43.850;25.948;2023-02-28T10:48:25;36.25;;;21.50;;
71343;SDS011;59146;43.850;25.948;2023-02-28T10:50:50;37.17;;;22.42;;
71343;SDS011;59146;43.850;25.948;2023-02-28T10:58:29;39.50;;;23.83;;
71343;SDS011;59146;43.850;25.948;2023-02-28T11:00:57;47.63;;;28.92;;
71343;SDS011;59146;43.850;25.948;2023-02-28T11:03:24;43.72;;;23.27;;
71343;SDS011;59146;43.850;25.948;2023-02-28T11:05:55;40.72;;;23.95;;
71343;SDS011;59146;43.850;25.948;2023-02-28T11:08:21;37.38;;;22.88;;
71343;SDS011;59146;43.850;25.948;2023-02-28T11:10:56;36.15;;;20.75;;
71343;SDS011;59146;43.850;25.948;2023-02-28T11:13:32;36.17;;;21.33;;
71343;SDS011;59146;43.850;25.948;2023-02-28T11:16:00;41.38;;;22.23;;
71343;SDS011;59146;43.850;25.948;2023-02-28T11:21:20;39.85;;;23.45;;
71343;SDS011;59146;43.850;25.948;2023-02-28T11:23:49;42.70;;;24.48;;
71343;SDS011;59146;43.850;25.948;2023-02-28T11:26:16;43.65;;;22.42;;
71343;SDS011;59146;43.850;25.948;2023-02-28T11:29:03;39.17;;;23.23;;
71343;SDS011;59146;43.850;25.948;2023-02-28T11:31:36;37.55;;;23.38;;
71343;SDS011;59146;43.850;25.948;2023-02-28T11:34:01;41.95;;;24.48;;
71343;SDS011;59146;43.850;25.948;2023-02-28T11:36:54;36.13;;;19.73;;
71343;SDS011;59146;43.850;25.948;2023-02-28T11:39:21;40.13;;;21.13;;
71343;SDS011;59146;43.850;25.948;2023-02-28T11:53:01;43.97;;;24.63;;
71343;SDS011;59146;43.850;25.948;2023-02-28T11:55:49;47.67;;;25.17;;
71343;SDS011;59146;43.850;25.948;2023-02-28T11:58:19;41.90;;;22.70;;
71343;SDS011;59146;43.850;25.948;2023-02-28T12:00:57;42.17;;;24.75;;
71343;SDS011;59146;43.850;25.948;2023-02-28T12:03:46;39.17;;;22.52;;
71343;SDS011;59146;43.850;25.948;2023-02-28T12:06:20;44.35;;;24.05;;
71343;SDS011;59146;43.850;25.948;2023-02-28T12:11:48;43.92;;;26.02;;
71343;SDS011;59146;43.850;25.948;2023-02-28T12:25:24;46.72;;;27.10;;
71343;SDS011;59146;43.850;25.948;2023-02-28T12:27:48;48.28;;;25.00;;
71343;SDS011;59146;43.850;25.948;2023-02-28T12:33:02;45.03;;;25.30;;
71343;SDS011;59146;43.850;25.948;2023-02-28T12:36:04;54.47;;;29.02;;
71343;SDS011;59146;43.850;25.948;2023-02-28T12:38:28;49.72;;;25.30;;
71343;SDS011;59146;43.850;25.948;2023-02-28T12:43:34;50.67;;;28.77;;
71343;SDS011;59146;43.850;25.948;2023-02-28T12:46:09;48.47;;;27.90;;
71343;SDS011;59146;43.850;25.948;2023-02-28T12:48:42;49.60;;;23.60;;
71343;SDS011;59146;43.850;25.948;2023-02-28T12:51:11;45.03;;;24.73;;
71343;SDS011;59146;43.850;25.948;2023-02-28T12:56:49;50.30;;;28.60;;
71343;SDS011;59146;43.850;25.948;2023-02-28T13:05:24;47.42;;;27.60;;
71343;SDS011;59146;43.850;25.948;2023-02-28T13:08:36;44.10;;;23.92;;
71343;SDS011;59146;43.850;25.948;2023-02-28T13:10:59;47.28;;;25.27;;
71343;SDS011;59146;43.850;25.948;2023-02-28T13:13:25;44.25;;;26.73;;
71343;SDS011;59146;43.850;25.948;2023-02-28T13:16:10;46.95;;;24.98;;
71343;SDS011;59146;43.850;25.948;2023-02-28T13:18:36;42.75;;;25.30;;
71343;SDS011;59146;43.850;25.948;2023-02-28T13:21:02;41.13;;;24.83;;
71343;SDS011;59146;43.850;25.948;2023-02-28T13:23:41;44.97;;;25.73;;
71343;SDS011;59146;43.850;25.948;2023-02-28T13:31:25;43.55;;;25.00;;
71343;SDS011;59146;43.850;25.948;2023-02-28T13:38:59;37.50;;;23.52;;
71343;SDS011;59146;43.850;25.948;2023-02-28T13:46:31;37.65;;;22.23;;
71343;SDS011;59146;43.850;25.948;2023-02-28T14:05:15;33.75;;;18.70;;
71343;SDS011;59146;43.850;25.948;2023-02-28T14:08:04;32.17;;;20.55;;
71343;SDS011;59146;43.850;25.948;2023-02-28T14:10:41;35.42;;;22.30;;
71343;SDS011;59146;43.850;25.948;2023-02-28T14:18:28;34.95;;;21.60;;
71343;SDS011;59146;43.850;25.948;2023-02-28T14:21:09;32.58;;;20.90;;
71343;SDS011;59146;43.850;25.948;2023-02-28T14:23:46;37.85;;;21.98;;
71343;SDS011;59146;43.850;25.948;2023-02-28T14:31:41;28.25;;;20.48;;
71343;SDS011;59146;43.850;25.948;2023-02-28T14:34:17;29.70;;;20.40;;
71343;SDS011;59146;43.850;25.948;2023-02-28T14:36:51;33.08;;;22.13;;
71343;SDS011;59146;43.850;25.948;2023-02-28T14:39:19;27.25;;;18.58;;
71343;SDS011;59146;43.850;25.948;2023-02-28T14:41:50;28.77;;;19.20;;
71343;SDS011;59146;43.850;25.948;2023-02-28T14:46:49;33.25;;;22.52;;
71343;SDS011;59146;43.850;25.948;2023-02-28T14:49:18;31.15;;;19.85;;
71343;SDS011;59146;43.850;25.948;2023-02-28T14:52:28;39.60;;;23.92;;
71343;SDS011;59146;43.850;25.948;2023-02-28T14:54:52;33.38;;;21.33;;
71343;SDS011;59146;43.850;25.948;2023-02-28T14:57:24;36.75;;;21.77;;
71343;SDS011;59146;43.850;25.948;2023-02-28T15:00:06;32.03;;;21.65;;
71343;SDS011;59146;43.850;25.948;2023-02-28T15:02:39;35.38;;;22.45;;
71343;SDS011;59146;43.850;25.948;2023-02-28T15:07:43;36.30;;;22.85;;
71343;SDS011;59146;43.850;25.948;2023-02-28T15:10:24;34.63;;;22.08;;
71343;SDS011;59146;43.850;25.948;2023-02-28T15:12:53;29.27;;;18.92;;
71343;SDS011;59146;43.850;25.948;2023-02-28T15:15:21;34.22;;;21.95;;
71343;SDS011;59146;43.850;25.948;2023-02-28T15:17:51;32.20;;;22.95;;
71343;SDS011;59146;43.850;25.948;2023-02-28T15:20:21;30.75;;;21.35;;
71343;SDS011;59146;43.850;25.948;2023-02-28T15:22:48;33.42;;;20.77;;
71343;SDS011;59146;43.850;25.948;2023-02-28T15:25:18;34.50;;;22.10;;
71343;SDS011;59146;43.850;25.948;2023-02-28T15:27:50;37.60;;;20.98;;
71343;SDS011;59146;43.850;25.948;2023-02-28T15:33:05;30.88;;;20.75;;
71343;SDS011;59146;43.850;25.948;2023-02-28T15:35:33;34.67;;;23.60;;
71343;SDS011;59146;43.850;25.948;2023-02-28T15:40:55;33.63;;;21.95;;
71343;SDS011;59146;43.850;25.948;2023-02-28T15:43:28;39.35;;;22.48;;
71343;SDS011;59146;43.850;25.948;2023-02-28T15:48:33;41.95;;;24.58;;
71343;SDS011;59146;43.850;25.948;2023-02-28T15:54:19;37.88;;;23.40;;
71343;SDS011;59146;43.850;25.948;2023-02-28T15:56:30;39.63;;;24.30;;
71343;SDS011;59146;43.850;25.948;2023-02-28T15:58:58;39.13;;;25.00;;
71343;SDS011;59146;43.850;25.948;2023-02-28T16:04:01;40.63;;;26.25;;
71343;SDS011;59146;43.850;25.948;2023-02-28T16:06:32;51.97;;;25.73;;
71343;SDS011;59146;43.850;25.948;2023-02-28T16:08:58;40.33;;;25.70;;
71343;SDS011;59146;43.850;25.948;2023-02-28T16:11:23;40.53;;;25.67;;
71343;SDS011;59146;43.850;25.948;2023-02-28T16:13:49;42.00;;;28.67;;
71343;SDS011;59146;43.850;25.948;2023-02-28T16:16:20;44.85;;;29.13;;
71343;SDS011;59146;43.850;25.948;2023-02-28T16:18:47;42.90;;;28.45;;
71343;SDS011;59146;43.850;25.948;2023-02-28T16:21:13;44.65;;;26.98;;
71343;SDS011;59146;43.850;25.948;2023-02-28T16:23:38;51.22;;;30.52;;
71343;SDS011;59146;43.850;25.948;2023-02-28T16:26:04;52.95;;;30.20;;
71343;SDS011;59146;43.850;25.948;2023-02-28T16:28:32;52.92;;;30.38;;
71343;SDS011;59146;43.850;25.948;2023-02-28T16:31:00;42.83;;;26.40;;
71343;SDS011;59146;43.850;25.948;2023-02-28T16:33:27;50.33;;;31.08;;
71343;SDS011;59146;43.850;25.948;2023-02-28T16:35:53;45.83;;;26.67;;
71343;SDS011;59146;43.850;25.948;2023-02-28T16:38:19;46.72;;;29.30;;
71343;SDS011;59146;43.850;25.948;2023-02-28T16:40:44;51.50;;;29.15;;
71343;SDS011;59146;43.850;25.948;2023-02-28T16:43:16;49.85;;;28.98;;
71343;SDS011;59146;43.850;25.948;2023-02-28T16:45:46;44.20;;;27.50;;
71343;SDS011;59146;43.850;25.948;2023-02-28T16:48:12;48.15;;;29.08;;
71343;SDS011;59146;43.850;25.948;2023-02-28T16:50:39;49.95;;;30.83;;
71343;SDS011;59146;43.850;25.948;2023-02-28T16:53:05;49.13;;;29.30;;
71343;SDS011;59146;43.850;25.948;2023-02-28T16:55:31;43.00;;;25.38;;
71343;SDS011;59146;43.850;25.948;2023-02-28T16:57:57;53.10;;;30.58;;
71343;SDS011;59146;43.850;25.948;2023-02-28T17:00:25;59.47;;;32.40;;
71343;SDS011;59146;43.850;25.948;2023-02-28T17:02:52;49.30;;;29.52;;
71343;SDS011;59146;43.850;25.948;2023-02-28T17:05:18;50.85;;;27.90;;